PWSweather.com
Personal Weather Stations
Station Observations
COONRAPIDS
Minneapolis, MN 55433

Minneapolis, MN 55433

Lat: 45.187721, Lon: -93.36828

Elevation: 898

Station Type: Davis Vantage Pro 2

High Low Average
Temperature 11.5°F-11.4°C 4.7°F-15.2°C 7.7°F-13.5°C
Dew Point 2.6°F-16.3°C -5.6°F-20.9°C -3.1°F-19.5°C
Winds 5.8 mph 9.3 kmh Calm Calm 2.0 mph NE3.2 kmh NE
Wind Gusts 9.2 mph14.8 kmh -- 3.0 mph4.8 kmh
Humidity 67% 53% 61%
Pressure 30.48 in1032.2 mb 30.22 in1023.4 mb -
Precipitation 0.00 in0.0 mm - -
Hour Temp Dew Point Humidity Winds Wind Gusts Pressure Precip Precip Rate Daily Precip Total
12:00 AM 11.4°F-11.4°C 2.6°F-16.3°C 67% Calm Calm -- 30.25 in1024.4 mb - 0.00 in0.0 mm 0.00 in0.0 mm
12:10 AM 11.5°F-11.4°C 2.3°F-16.5°C 66% Calm Calm -- 30.25 in1024.4 mb - 0.00 in0.0 mm 0.00 in0.0 mm
12:20 AM 11.4°F-11.4°C 2.3°F-16.5°C 66% Calm Calm -- 30.25 in1024.4 mb - 0.00 in0.0 mm 0.00 in0.0 mm
12:30 AM 11.3°F-11.5°C 2.1°F-16.6°C 66% Calm Calm -- 30.25 in1024.4 mb - 0.00 in0.0 mm 0.00 in0.0 mm
12:40 AM 11.2°F-11.6°C 2.1°F-16.6°C 66% Calm Calm -- 30.25 in1024.4 mb - 0.00 in0.0 mm 0.00 in0.0 mm
12:50 AM 11.2°F-11.6°C 2.0°F-16.7°C 66% Calm Calm -- 30.24 in1024.0 mb - 0.00 in0.0 mm 0.00 in0.0 mm
01:00 AM 11.0°F-11.7°C 1.9°F-16.7°C 66% Calm Calm -- 30.24 in1024.0 mb - 0.00 in0.0 mm 0.00 in0.0 mm
01:10 AM 10.9°F-11.7°C 2.1°F-16.6°C 67% Calm Calm -- 30.23 in1023.7 mb - 0.00 in0.0 mm 0.00 in0.0 mm
01:20 AM 11.2°F-11.6°C 2.4°F-16.4°C 67% Calm Calm -- 30.23 in1023.7 mb - 0.00 in0.0 mm 0.00 in0.0 mm
01:30 AM 11.4°F-11.4°C 2.2°F-16.6°C 66% Calm Calm -- 30.23 in1023.7 mb - 0.00 in0.0 mm 0.00 in0.0 mm
01:40 AM 11.4°F-11.4°C 2.2°F-16.6°C 66% Calm Calm -- 30.23 in1023.7 mb - 0.00 in0.0 mm 0.00 in0.0 mm
01:50 AM 11.3°F-11.5°C 1.8°F-16.8°C 65% Calm Calm -- 30.25 in1024.4 mb - 0.00 in0.0 mm 0.00 in0.0 mm
02:00 AM 11.0°F-11.7°C 1.5°F-16.9°C 65% Calm Calm -- 30.24 in1024.0 mb - 0.00 in0.0 mm 0.00 in0.0 mm
02:10 AM 10.8°F-11.8°C 1.0°F-17.2°C 64% Calm Calm -- 30.23 in1023.7 mb - 0.00 in0.0 mm 0.00 in0.0 mm
02:20 AM 10.5°F-11.9°C 0.7°F-17.4°C 64% Calm Calm -- 30.23 in1023.7 mb - 0.00 in0.0 mm 0.00 in0.0 mm
02:30 AM 10.3°F-12.1°C 0.5°F-17.5°C 64% Calm Calm -- 30.22 in1023.4 mb - 0.00 in0.0 mm 0.00 in0.0 mm
02:40 AM 10.1°F-12.2°C 0.3°F-17.6°C 64% Calm Calm -- 30.23 in1023.7 mb - 0.00 in0.0 mm 0.00 in0.0 mm
02:50 AM 9.9°F-12.3°C 0.5°F-17.5°C 65% Calm Calm -- 30.25 in1024.4 mb - 0.00 in0.0 mm 0.00 in0.0 mm
03:00 AM 9.7°F-12.4°C 0.0°F-17.8°C 64% Calm Calm -- 30.25 in1024.4 mb - 0.00 in0.0 mm 0.00 in0.0 mm
03:10 AM 9.6°F-12.4°C -0.1°F-17.8°C 64% Calm Calm -- 30.26 in1024.7 mb - 0.00 in0.0 mm 0.00 in0.0 mm
03:20 AM 9.4°F-12.6°C -0.3°F-17.9°C 64% Calm Calm -- 30.26 in1024.7 mb - 0.00 in0.0 mm 0.00 in0.0 mm
03:30 AM 9.3°F-12.6°C -0.7°F-18.2°C 63% Calm Calm -- 30.26 in1024.7 mb - 0.00 in0.0 mm 0.00 in0.0 mm
03:40 AM 9.2°F-12.7°C -0.9°F-18.3°C 63% Calm Calm -- 30.27 in1025.1 mb - 0.00 in0.0 mm 0.00 in0.0 mm
03:50 AM 9.0°F-12.8°C -1.1°F-18.4°C 63% Calm Calm -- 30.27 in1025.1 mb - 0.00 in0.0 mm 0.00 in0.0 mm
04:00 AM 8.8°F-12.9°C -1.2°F-18.4°C 63% Calm Calm -- 30.25 in1024.4 mb - 0.00 in0.0 mm 0.00 in0.0 mm
04:10 AM 8.6°F-13.0°C -1.4°F-18.6°C 63% Calm Calm -- 30.26 in1024.7 mb - 0.00 in0.0 mm 0.00 in0.0 mm
04:20 AM 8.6°F-13.0°C -1.4°F-18.6°C 63% Calm Calm -- 30.26 in1024.7 mb - 0.00 in0.0 mm 0.00 in0.0 mm
04:30 AM 8.5°F-13.1°C -1.5°F-18.6°C 63% Calm Calm 2.3 mph3.7 kmh 30.25 in1024.4 mb - 0.00 in0.0 mm 0.00 in0.0 mm
04:40 AM 8.4°F-13.1°C -1.6°F-18.7°C 63% 2.3 mph NNE3.7 kmh NNE 4.6 mph7.4 kmh 30.24 in1024.0 mb - 0.00 in0.0 mm 0.00 in0.0 mm
04:50 AM 8.3°F-13.2°C -1.7°F-18.7°C 63% Calm Calm 2.3 mph3.7 kmh 30.25 in1024.4 mb - 0.00 in0.0 mm 0.00 in0.0 mm
05:00 AM 8.2°F-13.2°C -1.8°F-18.8°C 63% Calm Calm -- 30.26 in1024.7 mb - 0.00 in0.0 mm 0.00 in0.0 mm
05:10 AM 8.0°F-13.3°C -1.7°F-18.7°C 64% Calm Calm -- 30.26 in1024.7 mb - 0.00 in0.0 mm 0.00 in0.0 mm
05:20 AM 7.8°F-13.4°C -1.5°F-18.6°C 65% Calm Calm -- 30.26 in1024.7 mb - 0.00 in0.0 mm 0.00 in0.0 mm
05:30 AM 7.8°F-13.4°C -1.5°F-18.6°C 65% 1.2 mph N1.9 kmh N 2.3 mph3.7 kmh 30.25 in1024.4 mb - 0.00 in0.0 mm 0.00 in0.0 mm
05:40 AM 7.7°F-13.5°C -1.3°F-18.5°C 66% Calm Calm 2.3 mph3.7 kmh 30.26 in1024.7 mb - 0.00 in0.0 mm 0.00 in0.0 mm
05:50 AM 7.7°F-13.5°C -1.6°F-18.7°C 65% 1.2 mph NE1.9 kmh NE 3.5 mph5.6 kmh 30.27 in1025.1 mb - 0.00 in0.0 mm 0.00 in0.0 mm
06:00 AM 7.7°F-13.5°C -1.6°F-18.7°C 65% Calm Calm -- 30.28 in1025.4 mb - 0.00 in0.0 mm 0.00 in0.0 mm
06:10 AM 7.8°F-13.4°C -1.5°F-18.6°C 65% 1.2 mph NNE1.9 kmh NNE 3.5 mph5.6 kmh 30.28 in1025.4 mb - 0.00 in0.0 mm 0.00 in0.0 mm
06:20 AM 7.7°F-13.5°C -1.9°F-18.8°C 64% Calm Calm -- 30.29 in1025.7 mb - 0.00 in0.0 mm 0.00 in0.0 mm
06:30 AM 7.7°F-13.5°C -2.0°F-18.9°C 64% Calm Calm -- 30.30 in1026.1 mb - 0.00 in0.0 mm 0.00 in0.0 mm
06:40 AM 7.7°F-13.5°C -2.3°F-19.1°C 63% Calm Calm -- 30.30 in1026.1 mb - 0.00 in0.0 mm 0.00 in0.0 mm
06:50 AM 7.7°F-13.5°C -2.0°F-18.9°C 64% Calm Calm -- 30.30 in1026.1 mb - 0.00 in0.0 mm 0.00 in0.0 mm
07:00 AM 7.7°F-13.5°C -2.0°F-18.9°C 64% Calm Calm -- 30.30 in1026.1 mb - 0.00 in0.0 mm 0.00 in0.0 mm
07:10 AM 7.6°F-13.6°C -2.1°F-18.9°C 64% Calm Calm 3.5 mph5.6 kmh 30.30 in1026.1 mb - 0.00 in0.0 mm 0.00 in0.0 mm
07:20 AM 7.5°F-13.6°C -3.2°F-19.6°C 61% 1.2 mph NE1.9 kmh NE 4.6 mph7.4 kmh 30.30 in1026.1 mb - 0.00 in0.0 mm 0.00 in0.0 mm
07:30 AM 7.5°F-13.6°C -2.8°F-19.3°C 62% 2.3 mph NE3.7 kmh NE 3.5 mph5.6 kmh 30.30 in1026.1 mb - 0.00 in0.0 mm 0.00 in0.0 mm
07:40 AM 7.5°F-13.6°C -2.9°F-19.4°C 62% 2.3 mph NE3.7 kmh NE 3.5 mph5.6 kmh 30.30 in1026.1 mb - 0.00 in0.0 mm 0.00 in0.0 mm
07:50 AM 7.4°F-13.7°C -2.9°F-19.4°C 62% 1.2 mph NE1.9 kmh NE 2.3 mph3.7 kmh 30.30 in1026.1 mb - 0.00 in0.0 mm 0.00 in0.0 mm
08:00 AM 7.2°F-13.8°C -3.1°F-19.5°C 62% 3.5 mph NNE5.6 kmh NNE 3.5 mph5.6 kmh 30.30 in1026.1 mb - 0.00 in0.0 mm 0.00 in0.0 mm
08:10 AM 7.1°F-13.8°C -3.5°F-19.7°C 61% Calm Calm 3.5 mph5.6 kmh 30.31 in1026.4 mb - 0.00 in0.0 mm 0.00 in0.0 mm
08:20 AM 6.9°F-13.9°C -4.1°F-20.1°C 60% 4.6 mph NNE7.4 kmh NNE 3.5 mph5.6 kmh 30.31 in1026.4 mb - 0.00 in0.0 mm 0.00 in0.0 mm
08:30 AM 6.9°F-13.9°C -3.4°F-19.7°C 62% 3.5 mph NE5.6 kmh NE 4.6 mph7.4 kmh 30.31 in1026.4 mb - 0.00 in0.0 mm 0.00 in0.0 mm
08:40 AM 6.8°F-14.0°C -3.8°F-19.9°C 61% 2.3 mph NNE3.7 kmh NNE 3.5 mph5.6 kmh 30.32 in1026.8 mb - 0.00 in0.0 mm 0.00 in0.0 mm
08:50 AM 7.0°F-13.9°C -3.3°F-19.6°C 62% 2.3 mph NE3.7 kmh NE 3.5 mph5.6 kmh 30.32 in1026.8 mb - 0.00 in0.0 mm 0.00 in0.0 mm
09:00 AM 6.9°F-13.9°C -3.4°F-19.7°C 62% 1.2 mph NNE1.9 kmh NNE 3.5 mph5.6 kmh 30.32 in1026.8 mb - 0.00 in0.0 mm 0.00 in0.0 mm
09:10 AM 7.1°F-13.8°C -3.6°F-19.8°C 61% Calm Calm -- 30.33 in1027.1 mb - 0.00 in0.0 mm 0.00 in0.0 mm
09:20 AM 6.9°F-13.9°C -4.0°F-20.0°C 60% 1.2 mph NE1.9 kmh NE 2.3 mph3.7 kmh 30.33 in1027.1 mb - 0.00 in0.0 mm 0.00 in0.0 mm
09:30 AM 6.8°F-14.0°C -4.1°F-20.1°C 60% 3.5 mph NNE5.6 kmh NNE 4.6 mph7.4 kmh 30.33 in1027.1 mb - 0.00 in0.0 mm 0.00 in0.0 mm
09:40 AM 6.7°F-14.1°C -5.0°F-20.6°C 58% 3.5 mph NNE5.6 kmh NNE 8.1 mph13.0 kmh 30.33 in1027.1 mb - 0.00 in0.0 mm 0.00 in0.0 mm
09:50 AM 6.8°F-14.0°C -4.9°F-20.5°C 58% 2.3 mph NNE3.7 kmh NNE 4.6 mph7.4 kmh 30.34 in1027.4 mb - 0.00 in0.0 mm 0.00 in0.0 mm
10:00 AM 6.8°F-14.0°C -4.8°F-20.4°C 58% 3.5 mph NE5.6 kmh NE 6.9 mph11.1 kmh 30.34 in1027.4 mb - 0.00 in0.0 mm 0.00 in0.0 mm
10:10 AM 7.1°F-13.8°C -4.2°F-20.1°C 59% Calm Calm 2.3 mph3.7 kmh 30.35 in1027.8 mb - 0.00 in0.0 mm 0.00 in0.0 mm
10:20 AM 7.3°F-13.7°C -4.4°F-20.2°C 58% 2.3 mph NE3.7 kmh NE 4.6 mph7.4 kmh 30.36 in1028.1 mb - 0.00 in0.0 mm 0.00 in0.0 mm
10:30 AM 7.3°F-13.7°C -4.4°F-20.2°C 58% Calm Calm -- 30.37 in1028.4 mb - 0.00 in0.0 mm 0.00 in0.0 mm
10:40 AM 7.6°F-13.6°C -4.1°F-20.1°C 58% 2.3 mph NE3.7 kmh NE 3.5 mph5.6 kmh 30.39 in1029.1 mb - 0.00 in0.0 mm 0.00 in0.0 mm
10:50 AM 7.7°F-13.5°C -4.8°F-20.4°C 56% 2.3 mph NNE3.7 kmh NNE 3.5 mph5.6 kmh 30.40 in1029.5 mb - 0.00 in0.0 mm 0.00 in0.0 mm
11:00 AM 7.8°F-13.4°C -4.3°F-20.2°C 57% Calm Calm 2.3 mph3.7 kmh 30.39 in1029.1 mb - 0.00 in0.0 mm 0.00 in0.0 mm
11:10 AM 7.9°F-13.4°C -4.2°F-20.1°C 57% 1.2 mph NE1.9 kmh NE 5.8 mph9.3 kmh 30.39 in1029.1 mb - 0.00 in0.0 mm 0.00 in0.0 mm
11:20 AM 7.8°F-13.4°C -4.3°F-20.2°C 57% 2.3 mph NE3.7 kmh NE 9.2 mph14.8 kmh 30.38 in1028.8 mb - 0.00 in0.0 mm 0.00 in0.0 mm
11:30 AM 7.6°F-13.6°C -5.2°F-20.7°C 55% 2.3 mph NE3.7 kmh NE 4.6 mph7.4 kmh 30.37 in1028.4 mb - 0.00 in0.0 mm 0.00 in0.0 mm
11:40 AM 7.6°F-13.6°C -5.6°F-20.9°C 54% 3.5 mph NE5.6 kmh NE 8.1 mph13.0 kmh 30.36 in1028.1 mb - 0.00 in0.0 mm 0.00 in0.0 mm
11:50 AM 7.6°F-13.6°C -5.2°F-20.7°C 55% 2.3 mph NNE3.7 kmh NNE 4.6 mph7.4 kmh 30.36 in1028.1 mb - 0.00 in0.0 mm 0.00 in0.0 mm
12:00 PM 7.6°F-13.6°C -5.6°F-20.9°C 54% 2.3 mph NE3.7 kmh NE 3.5 mph5.6 kmh 30.36 in1028.1 mb - 0.00 in0.0 mm 0.00 in0.0 mm
12:10 PM 7.8°F-13.4°C -5.0°F-20.6°C 55% 1.2 mph NE1.9 kmh NE 2.3 mph3.7 kmh 30.36 in1028.1 mb - 0.00 in0.0 mm 0.00 in0.0 mm
12:20 PM 8.1°F-13.3°C -4.8°F-20.4°C 55% 2.3 mph N3.7 kmh N 4.6 mph7.4 kmh 30.35 in1027.8 mb - 0.00 in0.0 mm 0.00 in0.0 mm
12:30 PM 8.3°F-13.2°C -4.6°F-20.3°C 55% 2.3 mph NE3.7 kmh NE 4.6 mph7.4 kmh 30.35 in1027.8 mb - 0.00 in0.0 mm 0.00 in0.0 mm
12:40 PM 8.4°F-13.1°C -5.2°F-20.7°C 53% 2.3 mph NE3.7 kmh NE 4.6 mph7.4 kmh 30.35 in1027.8 mb - 0.00 in0.0 mm 0.00 in0.0 mm
12:50 PM 8.4°F-13.1°C -4.5°F-20.3°C 55% 2.3 mph NE3.7 kmh NE 4.6 mph7.4 kmh 30.35 in1027.8 mb - 0.00 in0.0 mm 0.00 in0.0 mm
01:00 PM 8.5°F-13.1°C -4.8°F-20.4°C 54% 2.3 mph NE3.7 kmh NE 4.6 mph7.4 kmh 30.34 in1027.4 mb - 0.00 in0.0 mm 0.00 in0.0 mm
01:10 PM 8.6°F-13.0°C -4.7°F-20.4°C 54% 2.3 mph NNE3.7 kmh NNE 5.8 mph9.3 kmh 30.34 in1027.4 mb - 0.00 in0.0 mm 0.00 in0.0 mm
01:20 PM 8.3°F-13.2°C -5.3°F-20.7°C 53% 3.5 mph NE5.6 kmh NE 3.5 mph5.6 kmh 30.34 in1027.4 mb - 0.00 in0.0 mm 0.00 in0.0 mm
01:30 PM 8.3°F-13.2°C -4.6°F-20.3°C 55% 2.3 mph N3.7 kmh N 3.5 mph5.6 kmh 30.34 in1027.4 mb - 0.00 in0.0 mm 0.00 in0.0 mm
01:40 PM 8.3°F-13.2°C -5.0°F-20.6°C 54% 2.3 mph NE3.7 kmh NE 3.5 mph5.6 kmh 30.34 in1027.4 mb - 0.00 in0.0 mm 0.00 in0.0 mm
01:50 PM 8.5°F-13.1°C -4.8°F-20.4°C 54% 4.6 mph NE7.4 kmh NE 5.8 mph9.3 kmh 30.33 in1027.1 mb - 0.00 in0.0 mm 0.00 in0.0 mm
02:00 PM 8.5°F-13.1°C -4.8°F-20.4°C 54% 2.3 mph NNE3.7 kmh NNE 4.6 mph7.4 kmh 30.33 in1027.1 mb - 0.00 in0.0 mm 0.00 in0.0 mm
02:10 PM 8.5°F-13.1°C -4.8°F-20.4°C 54% 2.3 mph NE3.7 kmh NE 3.5 mph5.6 kmh 30.33 in1027.1 mb - 0.00 in0.0 mm 0.00 in0.0 mm
02:20 PM 8.7°F-12.9°C -4.6°F-20.3°C 54% 1.2 mph NE1.9 kmh NE 3.5 mph5.6 kmh 30.32 in1026.8 mb - 0.00 in0.0 mm 0.00 in0.0 mm
02:30 PM 8.6°F-13.0°C -5.0°F-20.6°C 53% 2.3 mph NE3.7 kmh NE 2.3 mph3.7 kmh 30.32 in1026.8 mb - 0.00 in0.0 mm 0.00 in0.0 mm
02:40 PM 8.5°F-13.1°C -5.2°F-20.7°C 53% 3.5 mph NNE5.6 kmh NNE 4.6 mph7.4 kmh 30.32 in1026.8 mb - 0.00 in0.0 mm 0.00 in0.0 mm
02:50 PM 8.6°F-13.0°C -5.1°F-20.6°C 53% 3.5 mph NE5.6 kmh NE 5.8 mph9.3 kmh 30.32 in1026.8 mb - 0.00 in0.0 mm 0.00 in0.0 mm
03:00 PM 8.5°F-13.1°C -5.2°F-20.7°C 53% 2.3 mph NE3.7 kmh NE 6.9 mph11.1 kmh 30.32 in1026.8 mb - 0.00 in0.0 mm 0.00 in0.0 mm
03:10 PM 8.4°F-13.1°C -5.2°F-20.7°C 53% 3.5 mph NE5.6 kmh NE 4.6 mph7.4 kmh 30.32 in1026.8 mb - 0.00 in0.0 mm 0.00 in0.0 mm
03:20 PM 8.7°F-12.9°C -5.0°F-20.6°C 53% 2.3 mph NNE3.7 kmh NNE 4.6 mph7.4 kmh 30.32 in1026.8 mb - 0.00 in0.0 mm 0.00 in0.0 mm
03:30 PM 8.7°F-12.9°C -4.6°F-20.3°C 54% 2.3 mph NE3.7 kmh NE 3.5 mph5.6 kmh 30.33 in1027.1 mb - 0.00 in0.0 mm 0.00 in0.0 mm
03:40 PM 8.8°F-12.9°C -4.5°F-20.3°C 54% 2.3 mph NNE3.7 kmh NNE 4.6 mph7.4 kmh 30.33 in1027.1 mb - 0.00 in0.0 mm 0.00 in0.0 mm
03:50 PM 8.7°F-12.9°C -4.6°F-20.3°C 54% 2.3 mph N3.7 kmh N 4.6 mph7.4 kmh 30.33 in1027.1 mb - 0.00 in0.0 mm 0.00 in0.0 mm
04:00 PM 8.5°F-13.1°C -4.8°F-20.4°C 54% 1.2 mph NE1.9 kmh NE 5.8 mph9.3 kmh 30.34 in1027.4 mb - 0.00 in0.0 mm 0.00 in0.0 mm
04:10 PM 8.4°F-13.1°C -4.9°F-20.5°C 54% 3.5 mph NE5.6 kmh NE 8.1 mph13.0 kmh 30.34 in1027.4 mb - 0.00 in0.0 mm 0.00 in0.0 mm
04:20 PM 8.2°F-13.2°C -5.0°F-20.6°C 54% 2.3 mph NE3.7 kmh NE 4.6 mph7.4 kmh 30.34 in1027.4 mb - 0.00 in0.0 mm 0.00 in0.0 mm
04:30 PM 8.2°F-13.2°C -5.0°F-20.6°C 54% 1.2 mph NE1.9 kmh NE 3.5 mph5.6 kmh 30.35 in1027.8 mb - 0.00 in0.0 mm 0.00 in0.0 mm
04:40 PM 8.1°F-13.3°C -4.8°F-20.4°C 55% 2.3 mph NNE3.7 kmh NNE 6.9 mph11.1 kmh 30.35 in1027.8 mb - 0.00 in0.0 mm 0.00 in0.0 mm
04:50 PM 7.8°F-13.4°C -5.0°F-20.6°C 55% 2.3 mph NNE3.7 kmh NNE 3.5 mph5.6 kmh 30.36 in1028.1 mb - 0.00 in0.0 mm 0.00 in0.0 mm
05:00 PM 7.7°F-13.5°C -5.1°F-20.6°C 55% 2.3 mph NNE3.7 kmh NNE 6.9 mph11.1 kmh 30.36 in1028.1 mb - 0.00 in0.0 mm 0.00 in0.0 mm
05:10 PM 7.6°F-13.6°C -4.5°F-20.3°C 57% 2.3 mph NNE3.7 kmh NNE 4.6 mph7.4 kmh 30.36 in1028.1 mb - 0.00 in0.0 mm 0.00 in0.0 mm
05:20 PM 7.4°F-13.7°C -5.0°F-20.6°C 56% 1.2 mph NNE1.9 kmh NNE 3.5 mph5.6 kmh 30.37 in1028.4 mb - 0.00 in0.0 mm 0.00 in0.0 mm
05:30 PM 7.4°F-13.7°C -4.3°F-20.2°C 58% 1.2 mph NE1.9 kmh NE 1.2 mph1.9 kmh 30.37 in1028.4 mb - 0.00 in0.0 mm 0.00 in0.0 mm
05:40 PM 7.2°F-13.8°C -4.9°F-20.5°C 57% 1.2 mph N1.9 kmh N 3.5 mph5.6 kmh 30.38 in1028.8 mb - 0.00 in0.0 mm 0.00 in0.0 mm
05:50 PM 7.2°F-13.8°C -3.8°F-19.9°C 60% 1.2 mph NNE1.9 kmh NNE 3.5 mph5.6 kmh 30.39 in1029.1 mb - 0.00 in0.0 mm 0.00 in0.0 mm
06:00 PM 6.9°F-13.9°C -2.7°F-19.3°C 64% 2.3 mph N3.7 kmh N 3.5 mph5.6 kmh 30.39 in1029.1 mb - 0.00 in0.0 mm 0.00 in0.0 mm
06:10 PM 6.6°F-14.1°C -2.4°F-19.1°C 66% 2.3 mph NNE3.7 kmh NNE 4.6 mph7.4 kmh 30.40 in1029.5 mb - 0.00 in0.0 mm 0.00 in0.0 mm
06:20 PM 6.4°F-14.2°C -2.2°F-19.0°C 67% 2.3 mph NNE3.7 kmh NNE 3.5 mph5.6 kmh 30.40 in1029.5 mb - 0.00 in0.0 mm 0.00 in0.0 mm
06:30 PM 6.2°F-14.3°C -2.4°F-19.1°C 67% 3.5 mph N5.6 kmh N 6.9 mph11.1 kmh 30.40 in1029.5 mb - 0.00 in0.0 mm 0.00 in0.0 mm
06:40 PM 6.1°F-14.4°C -3.2°F-19.6°C 65% 3.5 mph NNE5.6 kmh NNE 8.1 mph13.0 kmh 30.41 in1029.8 mb - 0.00 in0.0 mm 0.00 in0.0 mm
06:50 PM 6.0°F-14.4°C -3.5°F-19.7°C 64% 1.2 mph NNE1.9 kmh NNE 3.5 mph5.6 kmh 30.41 in1029.8 mb - 0.00 in0.0 mm 0.00 in0.0 mm
07:00 PM 6.0°F-14.4°C -3.9°F-19.9°C 63% Calm Calm 2.3 mph3.7 kmh 30.41 in1029.8 mb - 0.00 in0.0 mm 0.00 in0.0 mm
07:10 PM 5.9°F-14.5°C -4.3°F-20.2°C 62% 2.3 mph NE3.7 kmh NE 8.1 mph13.0 kmh 30.42 in1030.1 mb - 0.00 in0.0 mm 0.00 in0.0 mm
07:20 PM 5.9°F-14.5°C -4.4°F-20.2°C 62% 3.5 mph N5.6 kmh N 4.6 mph7.4 kmh 30.42 in1030.1 mb - 0.00 in0.0 mm 0.00 in0.0 mm
07:30 PM 5.7°F-14.6°C -4.5°F-20.3°C 62% 3.5 mph NNE5.6 kmh NNE 3.5 mph5.6 kmh 30.43 in1030.5 mb - 0.00 in0.0 mm 0.00 in0.0 mm
07:40 PM 5.7°F-14.6°C -4.2°F-20.1°C 63% 2.3 mph NE3.7 kmh NE 2.3 mph3.7 kmh 30.43 in1030.5 mb - 0.00 in0.0 mm 0.00 in0.0 mm
07:50 PM 5.6°F-14.7°C -4.6°F-20.3°C 62% 4.6 mph NE7.4 kmh NE 5.8 mph9.3 kmh 30.43 in1030.5 mb - 0.00 in0.0 mm 0.00 in0.0 mm
08:00 PM 5.5°F-14.7°C -4.4°F-20.2°C 63% 3.5 mph NNE5.6 kmh NNE 6.9 mph11.1 kmh 30.43 in1030.5 mb - 0.00 in0.0 mm 0.00 in0.0 mm
08:10 PM 5.5°F-14.7°C -4.1°F-20.1°C 64% 3.5 mph NNE5.6 kmh NNE 5.8 mph9.3 kmh 30.43 in1030.5 mb - 0.00 in0.0 mm 0.00 in0.0 mm
08:20 PM 5.5°F-14.7°C -4.4°F-20.2°C 63% 2.3 mph N3.7 kmh N 4.6 mph7.4 kmh 30.43 in1030.5 mb - 0.00 in0.0 mm 0.00 in0.0 mm
08:30 PM 5.5°F-14.7°C -4.1°F-20.1°C 64% 2.3 mph NNE3.7 kmh NNE 6.9 mph11.1 kmh 30.43 in1030.5 mb - 0.00 in0.0 mm 0.00 in0.0 mm
08:40 PM 5.4°F-14.8°C -4.2°F-20.1°C 64% 2.3 mph N3.7 kmh N 5.8 mph9.3 kmh 30.44 in1030.8 mb - 0.00 in0.0 mm 0.00 in0.0 mm
08:50 PM 5.3°F-14.8°C -4.2°F-20.1°C 64% 2.3 mph NE3.7 kmh NE 3.5 mph5.6 kmh 30.43 in1030.5 mb - 0.00 in0.0 mm 0.00 in0.0 mm
09:00 PM 5.3°F-14.8°C -4.2°F-20.1°C 64% 3.5 mph N5.6 kmh N 6.9 mph11.1 kmh 30.45 in1031.2 mb - 0.00 in0.0 mm 0.00 in0.0 mm
09:10 PM 5.1°F-14.9°C -4.4°F-20.2°C 64% 3.5 mph NNE5.6 kmh NNE 6.9 mph11.1 kmh 30.45 in1031.2 mb - 0.00 in0.0 mm 0.00 in0.0 mm
09:20 PM 5.1°F-14.9°C -4.4°F-20.2°C 64% 3.5 mph NE5.6 kmh NE 8.1 mph13.0 kmh 30.44 in1030.8 mb - 0.00 in0.0 mm 0.00 in0.0 mm
09:30 PM 5.1°F-14.9°C -4.1°F-20.1°C 65% 5.8 mph NE9.3 kmh NE 8.1 mph13.0 kmh 30.44 in1030.8 mb - 0.00 in0.0 mm 0.00 in0.0 mm
09:40 PM 5.0°F-15.0°C -4.5°F-20.3°C 64% 1.2 mph NNE1.9 kmh NNE 3.5 mph5.6 kmh 30.45 in1031.2 mb - 0.00 in0.0 mm 0.00 in0.0 mm
09:50 PM 5.0°F-15.0°C -4.5°F-20.3°C 64% 3.5 mph NE5.6 kmh NE 4.6 mph7.4 kmh 30.45 in1031.2 mb - 0.00 in0.0 mm 0.00 in0.0 mm
10:00 PM 5.0°F-15.0°C -4.2°F-20.1°C 65% 1.2 mph N1.9 kmh N 3.5 mph5.6 kmh 30.46 in1031.5 mb - 0.00 in0.0 mm 0.00 in0.0 mm
10:10 PM 5.0°F-15.0°C -4.5°F-20.3°C 64% 2.3 mph NNE3.7 kmh NNE 4.6 mph7.4 kmh 30.46 in1031.5 mb - 0.00 in0.0 mm 0.00 in0.0 mm
10:20 PM 5.0°F-15.0°C -4.5°F-20.3°C 64% 1.2 mph NE1.9 kmh NE 2.3 mph3.7 kmh 30.46 in1031.5 mb - 0.00 in0.0 mm 0.00 in0.0 mm
10:30 PM 4.9°F-15.1°C -4.6°F-20.3°C 64% 4.6 mph NNE7.4 kmh NNE 5.8 mph9.3 kmh 30.46 in1031.5 mb - 0.00 in0.0 mm 0.00 in0.0 mm
10:40 PM 4.9°F-15.1°C -5.0°F-20.6°C 63% 1.2 mph NNE1.9 kmh NNE 4.6 mph7.4 kmh 30.46 in1031.5 mb - 0.00 in0.0 mm 0.00 in0.0 mm
10:50 PM 4.9°F-15.1°C -4.7°F-20.4°C 64% 3.5 mph NE5.6 kmh NE 6.9 mph11.1 kmh 30.46 in1031.5 mb - 0.00 in0.0 mm 0.00 in0.0 mm
11:00 PM 4.9°F-15.1°C -4.6°F-20.3°C 64% 3.5 mph NNE5.6 kmh NNE 8.1 mph13.0 kmh 30.46 in1031.5 mb - 0.00 in0.0 mm 0.00 in0.0 mm
11:10 PM 4.8°F-15.1°C -4.7°F-20.4°C 64% 1.2 mph NE1.9 kmh NE 3.5 mph5.6 kmh 30.46 in1031.5 mb - 0.00 in0.0 mm 0.00 in0.0 mm
11:20 PM 4.8°F-15.1°C -4.7°F-20.4°C 64% 1.2 mph NNE1.9 kmh NNE 3.5 mph5.6 kmh 30.47 in1031.8 mb - 0.00 in0.0 mm 0.00 in0.0 mm
11:30 PM 4.8°F-15.1°C -5.1°F-20.6°C 63% 2.3 mph NE3.7 kmh NE 5.8 mph9.3 kmh 30.47 in1031.8 mb - 0.00 in0.0 mm 0.00 in0.0 mm
11:40 PM 4.7°F-15.2°C -5.1°F-20.6°C 63% 1.2 mph NNE1.9 kmh NNE 3.5 mph5.6 kmh 30.47 in1031.8 mb - 0.00 in0.0 mm 0.00 in0.0 mm
11:50 PM 4.7°F-15.2°C -5.1°F-20.6°C 63% 1.2 mph NNE1.9 kmh NNE 3.5 mph5.6 kmh 30.48 in1032.2 mb - 0.00 in0.0 mm 0.00 in0.0 mm